EGXW

RAF Waddington Airport

Waddington, United Kingdom
METAR EGXW 211350Z 06011KT CAVOK 22/09 Q1016 BLU NOSIG
Observed Flight Rules
May-21 @ 13:50 UTC (59 minutes ago) Visual Flight Rules
Wind Visibility Clouds
60° at 11 knots 10,000+ meters
  • Clear skies
Temperatures Readings
Current 22°C / 72°F
Dewpoint 9°C / 48°F
Humidity 44%
Altimeter 30" Hg
Pressure 1016 hPa
Elevation 70
METAR EGXW 211350Z 06011KT CAVOK 22/09 Q1016 BLU NOSIG
Observed Flight Rules
May-21 @ 13:50 UTC
(59 minutes ago)
VFR
Wind Visibility
60° at 11 knots 10,000+ meters
Clouds
  • Clear skies
Temperature Dewpoint
22°C / 72°F 9°C / 48°F
Humidity Altimeter Pressure
44% 30" Hg 1016 hPa